Time;durP1;ratioP1;P1;durP2;ratioP2;P2;SDS_P1;SDS_P2;PMS_P1;PMS_P2;Temp;Humidity;BMP_temperature;BMP_pressure;BME280_temperature;BME280_humidity;BME280_pressure;Samples;Min_cycle;Max_cycle;Signal;HPM_P1;HPM_P2
2023/08/10 08:47:38;;;;;;;1.40;1.30;;;;;;;17.63;70.24;101978.34;5073947;27;20399;-72
2023/08/10 08:50:04;;;;;;;4.10;1.70;;;;;;;17.76;73.38;101970.94;5068283;28;20095;-67
2023/08/10 08:52:30;;;;;;;2.30;1.33;;;;;;;17.85;68.42;101980.41;5065154;28;20024;-68
2023/08/10 08:54:58;;;;;;;2.55;1.50;;;;;;;18.02;68.84;101974.97;5065288;28;20036;-69
2023/08/10 08:57:23;;;;;;;4.65;1.50;;;;;;;18.16;67.80;101979.06;5068673;28;20520;-68
2023/08/10 08:59:48;;;;;;;3.35;1.52;;;;;;;18.25;67.36;101976.72;5069148;28;20020;-69
2023/08/10 09:02:14;;;;;;;2.28;1.60;;;;;;;18.27;66.13;101976.47;5049764;28;20459;-68
2023/08/10 09:04:40;;;;;;;2.83;1.50;;;;;;;18.35;65.42;101976.06;5026694;28;20033;-70
2023/08/10 09:07:06;;;;;;;2.65;1.50;;;;;;;18.36;65.76;101969.53;5018428;28;20445;-69
2023/08/10 09:09:32;;;;;;;1.83;1.20;;;;;;;18.42;67.60;101960.31;5009580;28;20041;-69
2023/08/10 09:11:57;;;;;;;5.15;1.40;;;;;;;18.44;66.60;101958.13;5009438;28;20105;-70
2023/08/10 09:14:22;;;;;;;2.65;1.50;;;;;;;18.50;66.22;101953.56;5009578;28;20122;-70
2023/08/10 09:16:48;;;;;;;1.85;1.25;;;;;;;18.56;66.65;101955.28;5009794;28;20037;-70
2023/08/10 09:19:13;;;;;;;2.00;1.52;;;;;;;18.60;65.69;101960.03;5009075;28;20022;-69
2023/08/10 09:21:39;;;;;;;1.65;1.30;;;;;;;18.55;65.20;101956.38;5017189;28;20057;-69
2023/08/10 09:24:08;;;;;;;2.53;1.35;;;;;;;18.65;64.36;101955.69;5028871;28;20075;-69
2023/08/10 09:26:34;;;;;;;1.42;1.30;;;;;;;18.67;62.71;101959.00;5027640;28;20504;-70
2023/08/10 09:28:59;;;;;;;4.07;1.40;;;;;;;18.73;65.86;101963.47;5028831;28;20113;-69
2023/08/10 09:31:27;;;;;;;3.78;1.30;;;;;;;18.79;65.70;101956.97;5028902;28;20104;-70
2023/08/10 09:33:55;;;;;;;3.08;1.52;;;;;;;18.86;65.96;101945.88;5028746;28;20064;-73
2023/08/10 09:36:25;;;;;;;2.92;1.20;;;;;;;18.97;69.88;101952.31;5026391;28;20384;-70
2023/08/10 09:38:52;;;;;;;4.75;1.60;;;;;;;19.01;68.65;101951.56;5028800;28;20038;-69
2023/08/10 09:41:20;;;;;;;2.70;1.42;;;;;;;19.00;63.63;101949.88;5027346;28;20021;-68
2023/08/10 09:43:46;;;;;;;4.90;2.05;;;;;;;19.02;62.44;101955.09;5028978;28;20447;-69
2023/08/10 09:46:14;;;;;;;5.63;1.77;;;;;;;19.08;68.29;101956.84;5027918;28;20052;-70
2023/08/10 09:48:41;;;;;;;4.28;1.38;;;;;;;19.24;68.25;101955.94;5027766;28;20028;-71
2023/08/10 09:51:08;;;;;;;2.60;1.60;;;;;;;19.28;65.80;101951.59;5028760;28;20032;-68
2023/08/10 09:53:34;;;;;;;3.70;1.60;;;;;;;19.40;68.94;101945.13;5027059;28;20430;-75
2023/08/10 09:56:00;;;;;;;3.53;1.50;;;;;;;19.44;65.37;101954.50;5028670;28;20112;-71
2023/08/10 09:58:27;;;;;;;3.80;1.80;;;;;;;19.44;64.22;101949.84;5016461;28;20041;-69
2023/08/10 10:00:52;;;;;;;4.05;1.70;;;;;;;19.50;65.13;101947.16;5013224;28;20102;-72
2023/08/10 10:03:19;;;;;;;3.03;1.63;;;;;;;19.46;64.59;101955.06;5033689;28;20472;-70
2023/08/10 10:05:47;;;;;;;3.38;1.70;;;;;;;19.56;69.00;101955.19;5035351;28;20048;-72
2023/08/10 10:08:12;;;;;;;3.63;1.80;;;;;;;19.54;65.12;101960.13;5034803;28;20371;-71
2023/08/10 10:10:41;;;;;;;2.83;1.90;;;;;;;19.57;68.59;101956.84;5020137;28;20109;-69
2023/08/10 10:13:12;;;;;;;2.55;1.50;;;;;;;19.60;69.44;101953.59;5015386;28;20407;-68
2023/08/10 10:15:39;;;;;;;2.88;1.70;;;;;;;19.58;64.13;101958.50;5015098;28;20557;-71
2023/08/10 10:18:05;;;;;;;2.80;1.40;;;;;;;19.65;65.78;101961.03;5013428;28;20120;-69
2023/08/10 10:20:32;;;;;;;5.60;1.77;;;;;;;19.68;64.71;101965.19;5015244;28;20096;-74
2023/08/10 10:22:58;;;;;;;3.50;1.83;;;;;;;19.72;66.58;101969.09;5014381;28;20465;-70
2023/08/10 10:25:23;;;;;;;3.10;1.58;;;;;;;19.68;65.91;101962.44;5014165;28;20032;-70
2023/08/10 10:27:50;;;;;;;5.93;1.70;;;;;;;19.74;69.93;101962.22;5013473;28;20030;-73
2023/08/10 10:30:17;;;;;;;3.45;1.58;;;;;;;19.73;71.33;101968.81;5013102;28;20113;-73
2023/08/10 10:32:47;;;;;;;2.88;1.67;;;;;;;19.83;72.22;101966.19;5015136;28;20568;-72
2023/08/10 10:35:32;;;;;;;3.28;1.55;;;;;;;19.88;69.28;101959.09;5014494;28;20543;-71
2023/08/10 10:37:58;;;;;;;3.40;1.60;;;;;;;19.94;67.28;101958.03;5014469;28;20622;-71
2023/08/10 10:40:25;;;;;;;3.33;1.65;;;;;;;20.08;72.95;101950.19;5014763;28;20022;-69
2023/08/10 10:43:02;;;;;;;4.80;1.65;;;;;;;20.09;70.79;101954.59;5014875;28;20037;-70
2023/08/10 10:45:33;;;;;;;4.60;1.60;;;;;;;20.09;72.69;101951.84;5014347;28;20025;-70
2023/08/10 10:47:58;;;;;;;2.00;1.48;;;;;;;20.18;67.13;101956.63;5013916;28;20026;-67
2023/08/10 10:50:27;;;;;;;3.88;1.67;;;;;;;20.28;73.64;101960.53;4998328;28;20021;-72
2023/08/10 10:53:09;;;;;;;7.10;1.40;;;;;;;20.38;69.99;101962.50;5011883;28;20022;-73
2023/08/10 10:55:34;;;;;;;3.15;1.92;;;;;;;20.38;64.26;101946.03;5004336;28;20026;-70
2023/08/10 10:58:04;;;;;;;3.27;1.53;;;;;;;20.39;62.22;101936.69;5010303;28;20045;-68
2023/08/10 11:00:30;;;;;;;4.03;1.70;;;;;;;20.56;66.13;101940.09;5012691;28;20218;-70
2023/08/10 11:02:56;;;;;;;2.63;1.50;;;;;;;20.62;74.20;101946.44;5010196;28;20088;-77
2023/08/10 11:05:22;;;;;;;7.22;1.80;;;;;;;20.56;65.17;101940.09;5013837;28;20025;-71
2023/08/10 11:07:49;;;;;;;5.03;1.65;;;;;;;20.58;70.01;101942.56;5004550;28;20506;-66
2023/08/10 11:10:17;;;;;;;4.13;1.88;;;;;;;20.58;66.69;101943.41;5009467;28;20041;-68
2023/08/10 11:12:44;;;;;;;6.47;1.70;;;;;;;20.69;68.57;101936.06;5013055;28;20401;-67
2023/08/10 11:15:12;;;;;;;2.42;1.65;;;;;;;20.84;65.55;101940.81;4998771;28;20081;-69
2023/08/10 11:17:39;;;;;;;3.35;1.90;;;;;;;20.88;64.13;101941.97;4994275;28;20041;-70
2023/08/10 11:20:12;;;;;;;3.88;2.00;;;;;;;20.81;62.47;101939.44;4995150;28;20461;-71
2023/08/10 11:22:42;;;;;;;2.28;1.77;;;;;;;20.83;60.94;101939.16;4997748;28;20072;-71
2023/08/10 11:25:18;;;;;;;4.47;1.90;;;;;;;20.85;60.20;101937.81;5025538;28;20125;-71
2023/08/10 11:27:49;;;;;;;3.45;1.67;;;;;;;21.08;60.12;101934.88;4994222;28;20050;-71
2023/08/10 11:30:16;;;;;;;3.65;1.80;;;;;;;21.08;59.62;101929.38;4993920;28;20022;-71
2023/08/10 11:32:44;;;;;;;4.95;1.90;;;;;;;21.14;59.17;101928.28;4997831;28;20354;-70
2023/08/10 11:35:12;;;;;;;2.92;1.80;;;;;;;21.28;61.57;101929.44;5013692;28;20037;-68
2023/08/10 11:37:39;;;;;;;4.68;1.75;;;;;;;21.37;62.94;101927.78;5013114;28;20029;-70
2023/08/10 11:40:12;;;;;;;4.22;1.70;;;;;;;21.58;60.76;101917.66;5010395;28;20517;-69
2023/08/10 11:42:43;;;;;;;4.00;1.90;;;;;;;21.69;61.36;101926.78;5013821;28;20026;-70
2023/08/10 11:45:17;;;;;;;4.43;2.00;;;;;;;21.63;60.57;101925.13;5013529;28;20030;-70
2023/08/10 11:47:44;;;;;;;5.68;1.95;;;;;;;21.73;61.21;101918.81;5013817;28;20469;-70
2023/08/10 11:50:12;;;;;;;5.07;2.20;;;;;;;21.82;67.55;101916.34;5013831;28;20061;-70
2023/08/10 11:52:39;;;;;;;4.72;1.90;;;;;;;21.97;65.91;101915.47;5013632;28;20030;-70
2023/08/10 11:55:12;;;;;;;3.90;1.92;;;;;;;22.16;66.50;101915.75;5011674;28;20024;-71
2023/08/10 11:57:38;;;;;;;5.45;1.98;;;;;;;22.17;61.73;101912.72;5013258;28;20040;-71
2023/08/10 12:00:29;;;;;;;5.07;2.13;;;;;;;22.35;60.91;101919.63;5008915;28;20028;-69
2023/08/10 12:03:00;;;;;;;3.78;1.60;;;;;;;22.50;61.54;101917.94;5029689;28;20114;-71
2023/08/10 12:05:34;;;;;;;3.35;1.70;;;;;;;22.65;63.47;101912.38;5027949;28;20026;-71
2023/08/10 12:08:01;;;;;;;3.80;1.83;;;;;;;22.70;58.79;101923.38;5010887;28;20025;-70
2023/08/10 12:10:36;;;;;;;4.93;1.80;;;;;;;22.79;58.48;101921.69;5012454;28;20037;-68
2023/08/10 12:13:05;;;;;;;8.60;1.95;;;;;;;22.93;60.41;101918.31;5009916;28;20018;-69
2023/08/10 12:15:35;;;;;;;3.38;1.80;;;;;;;22.79;55.60;101918.91;5012491;28;20037;-71
2023/08/10 12:18:01;;;;;;;3.80;2.03;;;;;;;22.91;58.65;101915.03;5012485;28;20061;-71
2023/08/10 12:20:27;;;;;;;6.88;1.98;;;;;;;23.04;61.31;101913.56;5019210;28;20169;-73
2023/08/10 12:22:53;;;;;;;4.78;1.83;;;;;;;23.18;60.42;101909.94;4993153;28;20022;-73
2023/08/10 12:25:19;;;;;;;6.22;2.05;;;;;;;23.31;62.04;101914.03;4992874;28;20112;-74
2023/08/10 12:27:45;;;;;;;2.75;1.50;;;;;;;23.29;56.64;101920.94;4993159;28;20026;-74
2023/08/10 12:30:10;;;;;;;2.72;1.80;;;;;;;23.07;52.96;101913.84;5001914;28;20358;-72
2023/08/10 12:32:36;;;;;;;6.00;1.95;;;;;;;23.15;55.04;101920.75;5013322;28;20083;-73
2023/08/10 12:35:01;;;;;;;7.38;1.92;;;;;;;23.13;55.99;101911.91;5011416;28;20018;-72
2023/08/10 12:37:26;;;;;;;3.50;1.80;;;;;;;23.27;58.23;101909.34;5012532;28;20033;-72
2023/08/10 12:39:53;;;;;;;4.30;2.10;;;;;;;23.26;54.90;101904.94;5002147;28;20471;-72
2023/08/10 12:42:19;;;;;;;4.35;2.00;;;;;;;23.24;53.62;101904.41;5012401;28;20465;-73
2023/08/10 12:44:44;;;;;;;2.53;1.83;;;;;;;23.14;53.90;101908.03;5012965;28;20101;-73
2023/08/10 12:47:09;;;;;;;2.83;1.63;;;;;;;23.35;60.82;101897.69;5012582;28;20052;-71
2023/08/10 12:49:35;;;;;;;3.83;1.85;;;;;;;23.34;55.59;101902.41;5012851;28;20026;-72
2023/08/10 12:52:00;;;;;;;3.28;1.70;;;;;;;23.53;61.91;101897.00;5011472;28;20053;-71
2023/08/10 12:54:25;;;;;;;2.28;1.58;;;;;;;23.64;55.67;101896.94;5011824;28;20085;-73
2023/08/10 12:56:51;;;;;;;4.97;2.10;;;;;;;23.63;56.03;101898.88;5011235;28;20087;-76
2023/08/10 12:59:16;;;;;;;4.07;1.88;;;;;;;23.73;58.20;101902.66;5012480;28;20437;-69
2023/08/10 13:01:41;;;;;;;3.50;2.20;;;;;;;23.62;53.83;101899.16;5018522;28;20047;-69
2023/08/10 13:04:07;;;;;;;6.53;2.50;;;;;;;23.62;54.72;101912.97;5032339;28;20018;-70
2023/08/10 13:06:32;;;;;;;7.25;2.40;;;;;;;23.63;55.38;101900.84;5028752;28;20029;-73
2023/08/10 13:08:58;;;;;;;2.33;1.90;;;;;;;23.72;55.20;101901.84;5008089;28;20030;-78
2023/08/10 13:11:23;;;;;;;5.78;2.20;;;;;;;23.81;54.74;101902.88;5011261;28;20120;-73
2023/08/10 13:13:48;;;;;;;3.65;2.13;;;;;;;23.56;53.30;101906.66;5010227;28;20099;-72
2023/08/10 13:16:14;;;;;;;4.78;1.92;;;;;;;23.31;52.63;101918.69;5009538;28;20025;-74
2023/08/10 13:18:39;;;;;;;3.22;1.70;;;;;;;23.14;52.57;101908.88;5011868;28;20490;-73
2023/08/10 13:21:05;;;;;;;3.35;1.70;;;;;;;23.08;53.32;101904.44;5012577;28;20026;-72
2023/08/10 13:23:31;;;;;;;4.63;1.73;;;;;;;23.22;53.58;101909.38;4999555;28;20473;-75
2023/08/10 13:25:56;;;;;;;5.30;1.70;;;;;;;23.12;54.47;101908.31;4992932;28;20061;-76
2023/08/10 13:28:22;;;;;;;3.45;1.90;;;;;;;23.15;57.32;101913.28;4992947;28;20084;-73
2023/08/10 13:30:47;;;;;;;3.22;1.60;;;;;;;23.35;60.54;101917.84;4994550;28;20467;-73
2023/08/10 13:33:12;;;;;;;2.30;1.60;;;;;;;23.66;54.42;101914.88;5012589;28;20033;-73
2023/08/10 13:35:38;;;;;;;5.15;1.70;;;;;;;23.73;53.29;101909.00;5015832;28;20157;-73
2023/08/10 13:38:03;;;;;;;2.65;1.77;;;;;;;23.77;51.96;101907.34;5016107;28;20431;-73
2023/08/10 13:40:28;;;;;;;2.75;1.77;;;;;;;23.86;52.80;101908.38;5015624;28;20521;-73
2023/08/10 13:42:54;;;;;;;5.68;1.80;;;;;;;24.01;53.48;101909.38;5014135;28;20018;-74
2023/08/10 13:45:19;;;;;;;3.22;1.95;;;;;;;23.99;52.20;101906.91;5014228;28;20034;-73
2023/08/10 13:47:44;;;;;;;7.28;2.15;;;;;;;23.78;52.08;101900.69;5012566;28;20044;-74
2023/08/10 13:50:10;;;;;;;4.20;1.95;;;;;;;23.57;52.55;101896.44;5015197;28;20523;-74
2023/08/10 13:52:35;;;;;;;4.82;2.17;;;;;;;23.64;54.69;101888.66;5013637;28;20057;-74
2023/08/10 13:55:03;;;;;;;4.00;2.00;;;;;;;23.77;54.26;101890.75;5013462;28;20057;-74
2023/08/10 13:57:29;;;;;;;3.78;1.88;;;;;;;23.98;55.66;101887.84;5015012;28;20025;-74
2023/08/10 13:59:54;;;;;;;5.40;1.70;;;;;;;24.36;58.85;101888.00;5014530;28;20030;-74
2023/08/10 14:02:20;;;;;;;2.95;1.80;;;;;;;24.55;56.90;101885.31;5021708;28;20049;-74
2023/08/10 14:04:45;;;;;;;6.70;2.17;;;;;;;24.60;60.13;101879.75;5015662;28;20079;-75
2023/08/10 14:07:12;;;;;;;3.92;1.92;;;;;;;24.66;52.12;101886.03;5005226;28;20026;-74
2023/08/10 14:09:37;;;;;;;3.70;2.20;;;;;;;24.78;51.79;101889.19;4995702;28;20040;-76
2023/08/10 14:12:03;;;;;;;5.00;1.65;;;;;;;24.91;53.92;101885.72;5012424;28;20105;-74
2023/08/10 14:14:29;;;;;;;3.47;1.65;;;;;;;25.05;50.31;101882.22;5013947;28;20053;-73
2023/08/10 14:16:55;;;;;;;4.65;1.85;;;;;;;25.11;50.74;101881.81;5014999;28;20030;-72
2023/08/10 14:19:21;;;;;;;3.72;1.27;;;;;;;25.23;50.50;101880.56;5013551;28;20072;-76
2023/08/10 14:21:47;;;;;;;1.83;1.60;;;;;;;25.27;50.03;101885.22;5012880;28;20447;-72
2023/08/10 14:24:12;;;;;;;3.42;1.40;;;;;;;25.36;51.00;101879.00;5012626;28;20036;-72
2023/08/10 14:26:38;;;;;;;2.92;1.60;;;;;;;25.42;50.22;101881.38;5009144;28;20511;-75
2023/08/10 14:29:04;;;;;;;2.83;1.40;;;;;;;25.44;50.44;101879.16;5015171;28;20026;-71
2023/08/10 14:31:29;;;;;;;5.90;1.70;;;;;;;25.41;48.18;101881.69;5014877;28;20044;-72
2023/08/10 14:33:54;;;;;;;3.55;1.60;;;;;;;25.12;49.81;101877.09;5015089;28;20025;-72
2023/08/10 14:36:20;;;;;;;4.15;1.60;;;;;;;24.79;57.71;101877.03;5014804;28;20034;-71
2023/08/10 14:38:45;;;;;;;2.45;1.45;;;;;;;24.63;55.87;101864.50;5014092;28;20101;-71
2023/08/10 14:41:11;;;;;;;1.60;1.38;;;;;;;24.35;58.84;101856.75;5013488;28;20140;-72
2023/08/10 14:43:37;;;;;;;2.63;1.50;;;;;;;24.24;56.84;101863.50;5014357;28;20371;-72
2023/08/10 14:46:02;;;;;;;3.83;1.70;;;;;;;24.16;58.45;101858.63;5014666;28;20042;-72
2023/08/10 14:48:28;;;;;;;3.50;1.60;;;;;;;24.24;58.25;101850.50;5014873;28;20028;-71
2023/08/10 14:50:53;;;;;;;2.63;1.60;;;;;;;24.50;53.49;101852.97;5013494;28;20117;-72
2023/08/10 14:53:18;;;;;;;2.47;1.60;;;;;;;24.90;51.79;101852.78;5014263;28;20507;-72
2023/08/10 14:55:44;;;;;;;6.40;1.83;;;;;;;25.81;51.76;101859.97;5012843;28;20148;-71
2023/08/10 14:58:09;;;;;;;2.17;1.83;;;;;;;26.26;51.72;101863.06;5011887;28;20025;-72
2023/08/10 15:00:34;;;;;;;4.25;1.70;;;;;;;26.48;51.38;101855.97;5009552;28;20449;-72
2023/08/10 15:03:00;;;;;;;2.65;1.60;;;;;;;26.29;51.61;101862.44;5014155;28;20050;-74
2023/08/10 15:05:26;;;;;;;7.90;1.90;;;;;;;26.59;52.69;101865.72;5012378;28;20014;-73
2023/08/10 15:07:52;;;;;;;6.60;1.90;;;;;;;26.65;49.83;101861.72;5014049;28;20030;-75
2023/08/10 15:10:18;;;;;;;4.68;1.83;;;;;;;26.98;48.66;101863.53;5013995;28;20059;-73
2023/08/10 15:12:46;;;;;;;4.72;1.80;;;;;;;27.37;45.60;101860.16;5012831;28;20113;-74
2023/08/10 15:15:13;;;;;;;3.10;1.60;;;;;;;27.62;44.58;101857.88;5013142;28;20029;-73
2023/08/10 15:17:39;;;;;;;3.65;1.70;;;;;;;28.06;45.20;101861.72;5014051;28;20129;-73
2023/08/10 15:20:11;;;;;;;2.25;1.60;;;;;;;28.22;43.50;101852.97;5009698;28;20026;-74
2023/08/10 15:22:38;;;;;;;4.45;1.85;;;;;;;28.61;41.35;101846.56;5013639;28;20026;-75
2023/08/10 15:25:05;;;;;;;2.42;1.50;;;;;;;28.72;41.76;101861.00;5014128;28;20660;-74
2023/08/10 15:27:31;;;;;;;2.90;1.80;;;;;;;29.03;41.73;101857.28;5013739;28;20036;-75
2023/08/10 15:29:56;;;;;;;6.05;1.73;;;;;;;28.78;41.79;101851.34;5004527;28;20027;-77
2023/08/10 15:32:21;;;;;;;2.45;1.60;;;;;;;28.28;44.67;101846.94;5013861;28;20357;-73
2023/08/10 15:34:47;;;;;;;2.72;1.38;;;;;;;28.13;45.20;101840.97;5011700;28;20049;-74
2023/08/10 15:37:13;;;;;;;3.00;1.65;;;;;;;28.13;44.45;101841.81;5012246;28;20433;-73
2023/08/10 15:39:39;;;;;;;2.55;1.80;;;;;;;28.53;43.75;101838.16;5013767;28;20105;-73
2023/08/10 15:42:04;;;;;;;5.85;2.17;;;;;;;28.77;42.64;101833.00;5013594;28;20108;-73
2023/08/10 15:44:30;;;;;;;4.82;2.33;;;;;;;29.03;41.21;101834.97;5012411;28;20025;-72
2023/08/10 15:46:55;;;;;;;3.28;1.58;;;;;;;29.06;40.90;101834.31;5010719;28;20091;-74
2023/08/10 15:49:21;;;;;;;4.25;1.50;;;;;;;29.06;40.77;101827.94;5013033;28;20101;-73
2023/08/10 15:51:46;;;;;;;2.97;1.52;;;;;;;29.22;42.00;101825.53;5011265;28;20120;-73
2023/08/10 15:54:11;;;;;;;4.82;1.65;;;;;;;29.24;41.29;101826.00;5012032;28;20095;-71
2023/08/10 15:56:37;;;;;;;2.35;1.70;;;;;;;29.27;41.25;101828.13;5012856;28;20029;-73
2023/08/10 15:59:02;;;;;;;3.53;1.70;;;;;;;29.27;40.42;101820.56;5009341;28;20068;-76
2023/08/10 16:01:30;;;;;;;7.15;2.00;;;;;;;29.28;40.55;101825.00;5010822;28;20455;-76
